Pilot Vessel Akarana — ZMT2938 — position and weather

sailwx.info

Track history (hours):
 
Tides and Currents Weather Stations Pressure Air Temp Water Temp Dewpoint Dewpoint Depression Visibility Wind Speed Wind Dir Waves Ship Positions

Pilot Vessel Akarana

Last reported at 2014-Aug-29 21:06 UTC. Time now 2014-Aug-30 00:27 UTC.
Position S 36°46' E 174°49'.

Length 15 m; draft 1.6 m.

Type: Pilot. MMSI: 512000344.

Date/timePositionNaut miles runAvg speedWind from/ knotsBaromVisibWave heightAir tempDewpointWater temp
2014-Aug-29 21:06S 36°46' E 174°49'1 0.1
2014-Aug-29 17:07S 36°46' E 174°49'1 0.1
2014-Aug-29 09:32S 36°46' E 174°49'1 0.5
2014-Aug-29 08:26S 36°47' E 174°49'1 0.4
2014-Aug-29 05:09S 36°48' E 174°49'2 1.0
2014-Aug-29 02:32S 36°46' E 174°49'2 0.7
2014-Aug-28 23:15S 36°48' E 174°49'0 0.1
2014-Aug-28 20:07S 36°48' E 174°49'0 0.0
2014-Aug-28 12:11S 36°48' E 174°49'2 0.8
2014-Aug-28 09:32S 36°46' E 174°50'0 0.2
2014-Aug-28 06:33S 36°46' E 174°49'3 0.7
2014-Aug-28 01:33S 36°49' E 174°50'5 1.0
2014-Aug-27 20:33S 36°45' E 174°50'0 0.0
2014-Aug-27 12:33S 36°44' E 174°50'5 3.8
2014-Aug-27 11:16S 36°49' E 174°49'5 1.4
2014-Aug-27 07:33S 36°44' E 174°50'3 0.4
2014-Aug-27 01:33S 36°47' E 174°49'4 1.1
2014-Aug-26 21:33S 36°50' E 174°46'1 0.2
2014-Aug-26 16:22S 36°51' E 174°47'0 0.2
2014-Aug-26 14:26S 36°50' E 174°47'0 0.0
2014-Aug-26 08:03S 36°50' E 174°48'4 6.0
2014-Aug-26 07:28S 36°47' E 174°48'4 1.7
2014-Aug-26 05:10S 36°51' E 174°47'711.1
2014-Aug-26 04:32S 36°44' E 174°50'7 6.0
2014-Aug-26 03:26S 36°51' E 174°48'1 0.1
2014-Aug-25 19:19S 36°51' E 174°47'0 0.0
2014-Aug-25 17:28S 36°51' E 174°47'0 0.0
2014-Aug-25 16:19S 36°51' E 174°47'0 0.0
2014-Aug-25 04:05S 36°51' E 174°47'3 1.6
2014-Aug-25 02:19S 36°48' E 174°49'3 0.2
2014-Aug-24 10:27S 36°51' E 174°47'0 0.0
2014-Aug-24 09:33S 36°51' E 174°47'3 0.6
2014-Aug-24 05:29S 36°49' E 174°49'2 0.7
2014-Aug-24 02:28S 36°50' E 174°47'2 0.3
2014-Aug-23 20:31S 36°49' E 174°49'2 1.6
2014-Aug-23 19:17S 36°50' E 174°47'0 0.0
2014-Aug-23 03:11S 36°50' E 174°47'10 2.6
2014-Aug-22 23:33S 36°42' E 174°53'7 3.6
2014-Aug-22 21:32S 36°48' E 174°49'1 0.4
2014-Aug-22 19:09S 36°49' E 174°49'2 0.1
2014-Aug-21 19:17S 36°50' E 174°47'0 0.1
2014-Aug-21 18:29S 36°50' E 174°47'4 1.0
2014-Aug-21 14:27S 36°47' E 174°49'2 1.0
2014-Aug-21 12:26S 36°49' E 174°49'2 1.5
2014-Aug-21 11:25S 36°47' E 174°48'2 0.2
2014-Aug-21 02:32S 36°49' E 174°49'1 0.1
2014-Aug-20 22:18S 36°49' E 174°49'5 2.8
2014-Aug-20 20:34S 36°44' E 174°50'5 2.6
2014-Aug-20 18:32S 36°49' E 174°49'4 4.3
2014-Aug-20 17:33S 36°45' E 174°50'6 0.7
2014-Aug-20 09:15S 36°50' E 174°47'0 0.0
2014-Aug-20 01:08S 36°50' E 174°48'2 0.9
2014-Aug-19 23:18S 36°49' E 174°49'  
Track history (hours):
 
Tides and Currents Weather Stations Pressure Air Temp Water Temp Dewpoint Dewpoint Depression Visibility Wind Speed Wind Dir Waves Ship Positions

Pilot Vessel Akarana

Last reported at 2014-Aug-29 21:06 UTC. Time now 2014-Aug-30 00:27 UTC.
Position S 36°46' E 174°49'.

Length 15 m; draft 1.6 m.

Type: Pilot. MMSI: 512000344.

Date/timePositionNaut miles runAvg speedWind from/ knotsBaromVisibWave heightAir tempDewpointWater temp
2014-Aug-29 21:06S 36°46' E 174°49'1 0.1
2014-Aug-29 17:07S 36°46' E 174°49'1 0.1
2014-Aug-29 09:32S 36°46' E 174°49'1 0.5
2014-Aug-29 08:26S 36°47' E 174°49'1 0.4
2014-Aug-29 05:09S 36°48' E 174°49'2 1.0
2014-Aug-29 02:32S 36°46' E 174°49'2 0.7
2014-Aug-28 23:15S 36°48' E 174°49'0 0.1
2014-Aug-28 20:07S 36°48' E 174°49'0 0.0
2014-Aug-28 12:11S 36°48' E 174°49'2 0.8
2014-Aug-28 09:32S 36°46' E 174°50'0 0.2
2014-Aug-28 06:33S 36°46' E 174°49'3 0.7
2014-Aug-28 01:33S 36°49' E 174°50'5 1.0
2014-Aug-27 20:33S 36°45' E 174°50'0 0.0
2014-Aug-27 12:33S 36°44' E 174°50'5 3.8
2014-Aug-27 11:16S 36°49' E 174°49'5 1.4
2014-Aug-27 07:33S 36°44' E 174°50'3 0.4
2014-Aug-27 01:33S 36°47' E 174°49'4 1.1
2014-Aug-26 21:33S 36°50' E 174°46'1 0.2
2014-Aug-26 16:22S 36°51' E 174°47'0 0.2
2014-Aug-26 14:26S 36°50' E 174°47'0 0.0
2014-Aug-26 08:03S 36°50' E 174°48'4 6.0
2014-Aug-26 07:28S 36°47' E 174°48'4 1.7
2014-Aug-26 05:10S 36°51' E 174°47'711.1
2014-Aug-26 04:32S 36°44' E 174°50'7 6.0
2014-Aug-26 03:26S 36°51' E 174°48'1 0.1
2014-Aug-25 19:19S 36°51' E 174°47'0 0.0
2014-Aug-25 17:28S 36°51' E 174°47'0 0.0
2014-Aug-25 16:19S 36°51' E 174°47'0 0.0
2014-Aug-25 04:05S 36°51' E 174°47'3 1.6
2014-Aug-25 02:19S 36°48' E 174°49'3 0.2
2014-Aug-24 10:27S 36°51' E 174°47'0 0.0
2014-Aug-24 09:33S 36°51' E 174°47'3 0.6
2014-Aug-24 05:29S 36°49' E 174°49'2 0.7
2014-Aug-24 02:28S 36°50' E 174°47'2 0.3
2014-Aug-23 20:31S 36°49' E 174°49'2 1.6
2014-Aug-23 19:17S 36°50' E 174°47'0 0.0
2014-Aug-23 03:11S 36°50' E 174°47'10 2.6
2014-Aug-22 23:33S 36°42' E 174°53'7 3.6
2014-Aug-22 21:32S 36°48' E 174°49'1 0.4
2014-Aug-22 19:09S 36°49' E 174°49'2 0.1
2014-Aug-21 19:17S 36°50' E 174°47'0 0.1
2014-Aug-21 18:29S 36°50' E 174°47'4 1.0
2014-Aug-21 14:27S 36°47' E 174°49'2 1.0
2014-Aug-21 12:26S 36°49' E 174°49'2 1.5
2014-Aug-21 11:25S 36°47' E 174°48'2 0.2
2014-Aug-21 02:32S 36°49' E 174°49'1 0.1
2014-Aug-20 22:18S 36°49' E 174°49'5 2.8
2014-Aug-20 20:34S 36°44' E 174°50'5 2.6
2014-Aug-20 18:32S 36°49' E 174°49'4 4.3
2014-Aug-20 17:33S 36°45' E 174°50'6 0.7
2014-Aug-20 09:15S 36°50' E 174°47'0 0.0
2014-Aug-20 01:08S 36°50' E 174°48'2 0.9
2014-Aug-19 23:18S 36°49' E 174°49'  

Dump ship's entire track history